Hardinsburg, IN

4:46 AM EST on November 24, 2014 (GMT -0500)
Bowman | Change Station
CLOSE
Current Station
Airport
Location: Louisville Bowman,
Elevation: 545 ft
Nearby Weather Stations
Active Advisory: Wind Advisory

Elev 545 ft 38.23 °N, 85.66 °W | Updated 33 minutes ago

Overcast
Overcast
62 °F
Feels Like 62 °F
N
13
Wind Variable Wind from South
Gusts 24 mph

Today
High -- | Low -- °F
--% Chance of Precip.
Yesterday
High -- | Low -- °F
Precip. -- in
7:36 AM 5:27 PM
Waxing Crescent, 4% visible
Pressure 29.35 in
Visibility 10.0 miles
Clouds Scattered Clouds 2700 ft
Mostly Cloudy 3900 ft
Mostly Cloudy 7500 ft
Dew Point 55 °F
Humidity 78%
Rainfall 0.02 in
Snow Depth Not available.
UV 0 out of 12
Pollen .10 out of 12
Air Quality Not available.
Flu Activity Not available.
SPECI KLOU 240913Z AUTO 18011G21KT 10SM SCT027 BKN039 BKN075 17/13 A2935 RMK AO2 T01670128

More Conditions Fewer Conditions

Pressure 29.35 in
Visibility 10.0 miles
Clouds Scattered Clouds 2700 ft
Mostly Cloudy 3900 ft
Mostly Cloudy 7500 ft
Dew Point 55 °F
Humidity 78%
Rainfall 0.02 in
Snow Depth Not available.
UV 0 out of 12
Pollen .10 out of 12
Air Quality Not available.
Flu Activity Not available.
SPECI KLOU 240913Z AUTO 18011G21KT 10SM SCT027 BKN039 BKN075 17/13 A2935 RMK AO2 T01670128

More Conditions Fewer Conditions

10-Day Weather Forecast

Almanac

Astronomy

Nov. 24, 2014 Rise Set
Actual Time
Civil Twilight
Nautical Twilight
Astronomical Twilight
Moon
Length of Visible Light
Length of Day
Tomorrow will be .
, % of the Moon is Illuminated

Today's Extremes

State Highs State Lows

Community

WunderPhotos

Upload Photos

1,773,294 photos uploaded!

WunderBlogs® & News

Nearby

Air Quality

  Air Quality AQ Index Pollutant
Not available.

Snow Depth

Station Depth Elevation

Earthquake Activity

City Distance Mag. Time & Date
Minimum magnitude displayed is 2.5.

Coastal Water Temperatures

Place Temperature

Nearby Weather Stations